createdAt,value
2019-01-28T00:00:01.214Z,976.58
2019-01-28T00:01:01.155Z,976.58
2019-01-28T00:02:01.103Z,976.59
2019-01-28T00:03:01.067Z,976.55
2019-01-28T00:04:00.992Z,976.62
2019-01-28T00:05:00.936Z,976.58
2019-01-28T00:06:00.869Z,976.56
2019-01-28T00:07:00.813Z,976.49
2019-01-28T00:08:00.782Z,976.58
2019-01-28T00:09:00.695Z,976.52
2019-01-28T00:10:00.649Z,976.52
2019-01-28T00:11:00.588Z,976.44
2019-01-28T00:12:00.532Z,976.44
2019-01-28T00:13:00.508Z,976.49
2019-01-28T00:14:00.417Z,976.49
2019-01-28T00:15:00.355Z,976.47
2019-01-28T00:16:00.304Z,976.52
2019-01-28T00:17:00.248Z,976.48
2019-01-28T00:18:00.220Z,976.42
2019-01-28T00:19:00.134Z,976.45
2019-01-28T00:20:00.235Z,976.42
2019-01-28T00:21:00.022Z,976.54
2019-01-28T00:21:59.960Z,976.52
2019-01-28T00:22:59.929Z,976.48
2019-01-28T00:23:59.849Z,976.39
2019-01-28T00:24:59.789Z,976.45
2019-01-28T00:25:59.733Z,976.46
2019-01-28T00:26:59.688Z,976.48
2019-01-28T00:27:59.650Z,976.53
2019-01-28T00:28:59.565Z,976.47
2019-01-28T00:29:59.506Z,976.49
2019-01-28T00:30:59.448Z,976.51
2019-01-28T00:31:59.406Z,976.57
2019-01-28T00:32:59.362Z,976.57
2019-01-28T00:33:59.295Z,976.59
2019-01-28T00:34:59.226Z,976.52
2019-01-28T00:35:59.185Z,976.48
2019-01-28T00:36:59.108Z,976.54
2019-01-28T00:37:59.100Z,976.55
2019-01-28T00:38:58.997Z,976.52
2019-01-28T00:39:58.985Z,976.50
2019-01-28T00:40:58.881Z,976.50
2019-01-28T00:41:58.829Z,976.43
2019-01-28T00:42:58.769Z,976.42
2019-01-28T00:43:58.748Z,976.48
2019-01-28T00:44:58.688Z,976.46
2019-01-28T00:45:58.598Z,976.46
2019-01-28T00:46:58.534Z,976.51
2019-01-28T00:47:58.483Z,976.54
2019-01-28T00:48:58.452Z,976.47
2019-01-28T00:49:58.365Z,976.42
2019-01-28T00:50:58.313Z,976.47
2019-01-28T00:51:58.262Z,976.45
2019-01-28T00:52:58.193Z,976.55
2019-01-28T00:53:58.167Z,976.50
2019-01-28T00:54:58.081Z,976.48
2019-01-28T00:55:58.028Z,976.44
2019-01-28T00:56:57.968Z,976.48
2019-01-28T00:57:57.912Z,976.51
2019-01-28T00:58:57.880Z,976.53
2019-01-28T00:59:57.802Z,976.52
2019-01-28T01:00:57.786Z,976.57
2019-01-28T01:01:57.691Z,976.56
2019-01-28T01:02:57.631Z,976.55
2019-01-28T01:03:57.612Z,976.51
2019-01-28T01:04:57.517Z,976.52
2019-01-28T01:05:57.463Z,976.52
2019-01-28T01:06:57.400Z,976.49
2019-01-28T01:07:57.346Z,976.47
2019-01-28T01:08:57.338Z,976.43
2019-01-28T01:09:57.239Z,976.42
2019-01-28T01:10:57.185Z,976.42
2019-01-28T01:11:57.115Z,976.46
2019-01-28T01:12:57.059Z,976.48
2019-01-28T01:13:57.018Z,976.51
2019-01-28T01:14:56.944Z,976.41
2019-01-28T01:15:56.892Z,976.46
2019-01-28T01:16:56.834Z,976.41
2019-01-28T01:17:56.770Z,976.34
2019-01-28T01:18:56.746Z,976.36
2019-01-28T01:19:56.660Z,976.41
2019-01-28T01:20:56.617Z,976.38
2019-01-28T01:21:56.547Z,976.30
2019-01-28T01:22:56.498Z,976.34
2019-01-28T01:23:56.457Z,976.32
2019-01-28T01:24:56.372Z,976.32
2019-01-28T01:25:56.319Z,976.32
2019-01-28T01:26:56.268Z,976.38
2019-01-28T01:27:56.217Z,976.37
2019-01-28T01:28:56.170Z,976.34
2019-01-28T01:29:56.096Z,976.30
2019-01-28T01:30:56.032Z,976.30
2019-01-28T01:31:55.973Z,976.33
2019-01-28T01:32:55.918Z,976.32
2019-01-28T01:33:55.883Z,976.34
2019-01-28T01:34:55.803Z,976.26
2019-01-28T01:35:55.743Z,976.31
2019-01-28T01:36:55.691Z,976.32
2019-01-28T01:37:55.662Z,976.28
2019-01-28T01:38:55.637Z,976.32
2019-01-28T01:39:55.518Z,976.29
2019-01-28T01:40:55.462Z,976.31
2019-01-28T01:41:55.416Z,976.26
2019-01-28T01:42:55.352Z,976.28
2019-01-28T01:43:55.304Z,976.27
2019-01-28T01:44:55.262Z,976.30
2019-01-28T01:45:55.174Z,976.19
2019-01-28T01:46:55.115Z,976.23
2019-01-28T01:47:55.072Z,976.20
2019-01-28T01:48:55.016Z,976.22
2019-01-28T01:49:54.976Z,976.16
2019-01-28T01:50:54.891Z,976.23
2019-01-28T01:51:54.833Z,976.19
2019-01-28T01:52:54.801Z,976.20
2019-01-28T01:53:54.730Z,976.22
2019-01-28T01:54:54.717Z,976.22
2019-01-28T01:55:54.631Z,976.19
2019-01-28T01:56:54.561Z,976.15
2019-01-28T01:57:54.500Z,976.14
2019-01-28T01:58:54.433Z,976.09
2019-01-28T01:59:54.406Z,976.11
2019-01-28T02:00:54.321Z,976.16
2019-01-28T02:01:54.264Z,976.11
2019-01-28T02:02:54.203Z,976.12
2019-01-28T02:03:54.155Z,976.08
2019-01-28T02:04:54.119Z,976.08
2019-01-28T02:05:54.037Z,976.08
2019-01-28T02:06:53.982Z,976.05
2019-01-28T02:07:53.948Z,976.06
2019-01-28T02:08:53.867Z,976.15
2019-01-28T02:09:53.835Z,976.12
2019-01-28T02:10:53.754Z,976.07
2019-01-28T02:11:53.747Z,976.11
2019-01-28T02:12:53.637Z,976.04
2019-01-28T02:13:53.591Z,976.03
2019-01-28T02:14:53.561Z,976.01
2019-01-28T02:15:53.466Z,976.01
2019-01-28T02:16:53.424Z,975.97
2019-01-28T02:17:53.374Z,976.06
2019-01-28T02:18:53.293Z,976.06
2019-01-28T02:19:53.285Z,976.02
2019-01-28T02:20:53.176Z,975.99
2019-01-28T02:21:53.186Z,976.00
2019-01-28T02:22:53.067Z,975.97
2019-01-28T02:23:53.030Z,976.00
2019-01-28T02:24:52.953Z,976.07
2019-01-28T02:25:52.926Z,976.03
2019-01-28T02:26:52.838Z,976.03
2019-01-28T02:27:52.800Z,976.06
2019-01-28T02:28:52.723Z,975.96
2019-01-28T02:29:52.675Z,975.84
2019-01-28T02:30:52.641Z,975.83
2019-01-28T02:31:52.573Z,975.83
2019-01-28T02:32:52.508Z,975.90
2019-01-28T02:33:52.446Z,975.91
2019-01-28T02:34:52.388Z,975.89
2019-01-28T02:35:52.362Z,975.89
2019-01-28T02:36:52.267Z,975.83
2019-01-28T02:37:52.218Z,975.82
2019-01-28T02:38:52.180Z,975.81
2019-01-28T02:39:52.102Z,975.87
2019-01-28T02:40:52.070Z,975.81
2019-01-28T02:41:51.996Z,975.86
2019-01-28T02:42:51.929Z,975.82
2019-01-28T02:43:51.872Z,975.75
2019-01-28T02:44:51.817Z,975.75
2019-01-28T02:45:51.801Z,975.76
2019-01-28T02:46:51.698Z,975.87
2019-01-28T02:47:51.643Z,975.80
2019-01-28T02:48:51.585Z,975.85
2019-01-28T02:49:51.532Z,975.75
2019-01-28T02:50:51.501Z,975.73
2019-01-28T02:51:51.418Z,975.76
2019-01-28T02:52:51.358Z,975.77
2019-01-28T02:53:51.306Z,975.67
2019-01-28T02:54:51.260Z,975.68
2019-01-28T02:55:51.220Z,975.68
2019-01-28T02:56:51.143Z,975.73
2019-01-28T02:57:51.100Z,975.70
2019-01-28T02:58:51.012Z,975.69
2019-01-28T02:59:50.960Z,975.70
2019-01-28T03:00:50.919Z,975.71
2019-01-28T03:01:50.839Z,975.63
2019-01-28T03:02:50.798Z,975.68
2019-01-28T03:03:50.729Z,975.63
2019-01-28T03:04:50.669Z,975.62
2019-01-28T03:05:50.667Z,975.58
2019-01-28T03:06:50.562Z,975.60
2019-01-28T03:07:50.506Z,975.56
2019-01-28T03:08:50.458Z,975.57
2019-01-28T03:09:50.383Z,975.55
2019-01-28T03:10:50.358Z,975.55
2019-01-28T03:11:50.268Z,975.56
2019-01-28T03:12:50.217Z,975.52
2019-01-28T03:13:50.162Z,975.57
2019-01-28T03:14:50.098Z,975.53
2019-01-28T03:15:50.069Z,975.54
2019-01-28T03:16:49.984Z,975.52
2019-01-28T03:17:49.953Z,975.50
2019-01-28T03:18:49.890Z,975.46
2019-01-28T03:19:49.823Z,975.48
2019-01-28T03:20:49.797Z,975.52
2019-01-28T03:21:49.721Z,975.43
2019-01-28T03:22:49.652Z,975.47
2019-01-28T03:23:49.589Z,975.50
2019-01-28T03:24:49.532Z,975.45
2019-01-28T03:25:49.536Z,975.46
2019-01-28T03:26:49.427Z,975.43
2019-01-28T03:27:49.355Z,975.47
2019-01-28T03:28:49.311Z,975.43
2019-01-28T03:29:49.245Z,975.34
2019-01-28T03:30:49.258Z,975.34
2019-01-28T03:31:49.136Z,975.37
2019-01-28T03:32:49.071Z,975.32
2019-01-28T03:33:49.015Z,975.35
2019-01-28T03:34:48.955Z,975.31
2019-01-28T03:35:48.914Z,975.32
2019-01-28T03:36:48.887Z,975.29
2019-01-28T03:37:48.800Z,975.28
2019-01-28T03:38:48.735Z,975.30
2019-01-28T03:39:48.676Z,975.30
2019-01-28T03:40:48.616Z,975.27
2019-01-28T03:41:48.582Z,975.26
2019-01-28T03:42:48.513Z,975.29
2019-01-28T03:43:48.447Z,975.26
2019-01-28T03:44:48.407Z,975.28
2019-01-28T03:45:48.334Z,975.27
2019-01-28T03:46:48.299Z,975.26
2019-01-28T03:47:48.219Z,975.25
2019-01-28T03:48:48.162Z,975.27
2019-01-28T03:49:48.099Z,975.23
2019-01-28T03:50:48.052Z,975.26
2019-01-28T03:51:48.017Z,975.24
2019-01-28T03:52:47.947Z,975.23
2019-01-28T03:53:47.869Z,975.23
2019-01-28T03:54:47.825Z,975.24
2019-01-28T03:55:47.758Z,975.22
2019-01-28T03:56:47.771Z,975.26
2019-01-28T03:57:47.663Z,975.27
2019-01-28T03:58:47.618Z,975.23
2019-01-28T03:59:47.536Z,975.31
2019-01-28T04:00:47.492Z,975.23
2019-01-28T04:01:47.416Z,975.18
2019-01-28T04:02:47.399Z,975.21
2019-01-28T04:03:47.330Z,975.21
2019-01-28T04:04:47.246Z,975.20
2019-01-28T04:05:47.185Z,975.24
2019-01-28T04:06:47.130Z,975.20
2019-01-28T04:07:47.091Z,975.19
2019-01-28T04:08:47.017Z,975.20
2019-01-28T04:09:46.958Z,975.16
2019-01-28T04:10:46.924Z,975.11
2019-01-28T04:11:46.839Z,975.21
2019-01-28T04:12:46.817Z,975.14
2019-01-28T04:13:46.727Z,975.11
2019-01-28T04:14:46.677Z,975.13
2019-01-28T04:15:46.625Z,975.10
2019-01-28T04:16:46.559Z,975.15
2019-01-28T04:17:46.528Z,975.22
2019-01-28T04:18:46.441Z,975.14
2019-01-28T04:19:46.406Z,975.13
2019-01-28T04:20:46.332Z,975.10
2019-01-28T04:21:46.270Z,975.11
2019-01-28T04:22:46.284Z,975.14
2019-01-28T04:23:46.157Z,975.13
2019-01-28T04:24:46.105Z,975.15
2019-01-28T04:25:46.054Z,975.07
2019-01-28T04:26:45.990Z,975.08
2019-01-28T04:27:45.958Z,975.05
2019-01-28T04:28:45.889Z,975.12
2019-01-28T04:29:45.819Z,975.12
2019-01-28T04:30:45.757Z,975.12
2019-01-28T04:31:45.711Z,975.15
2019-01-28T04:32:45.685Z,975.11
2019-01-28T04:33:45.589Z,975.07
2019-01-28T04:34:45.539Z,975.18
2019-01-28T04:35:45.470Z,975.10
2019-01-28T04:36:45.409Z,975.05
2019-01-28T04:37:45.403Z,975.06
2019-01-28T04:38:45.300Z,975.03
2019-01-28T04:39:45.242Z,975.00
2019-01-28T04:40:45.193Z,975.05
2019-01-28T04:41:45.132Z,975.03
2019-01-28T04:42:45.098Z,975.00
2019-01-28T04:43:45.014Z,975.03
2019-01-28T04:44:44.956Z,975.05
2019-01-28T04:45:44.909Z,975.04
2019-01-28T04:46:44.837Z,975.04
2019-01-28T04:47:44.814Z,975.01
2019-01-28T04:48:44.726Z,974.99
2019-01-28T04:49:44.670Z,974.94
2019-01-28T04:50:44.612Z,974.98
2019-01-28T04:51:44.553Z,975.03
2019-01-28T04:52:44.555Z,974.98
2019-01-28T04:53:44.438Z,974.93
2019-01-28T04:54:44.379Z,974.94
2019-01-28T04:55:44.331Z,974.99
2019-01-28T04:56:44.273Z,974.94
2019-01-28T04:57:44.207Z,974.95
2019-01-28T04:58:44.181Z,974.96
2019-01-28T04:59:44.103Z,975.00
2019-01-28T05:00:44.038Z,974.93
2019-01-28T05:01:43.979Z,974.91
2019-01-28T05:02:43.920Z,974.94
2019-01-28T05:03:43.889Z,974.89
2019-01-28T05:04:43.811Z,974.92
2019-01-28T05:05:43.773Z,974.88
2019-01-28T05:06:43.693Z,974.91
2019-01-28T05:07:43.637Z,974.89
2019-01-28T05:08:43.603Z,974.93
2019-01-28T05:09:43.531Z,974.89
2019-01-28T05:10:43.473Z,974.92
2019-01-28T05:11:43.409Z,974.91
2019-01-28T05:12:43.349Z,974.89
2019-01-28T05:13:43.318Z,974.90
2019-01-28T05:14:43.236Z,974.87
2019-01-28T05:15:43.181Z,974.89
2019-01-28T05:16:43.131Z,974.87
2019-01-28T05:17:43.068Z,974.91
2019-01-28T05:18:43.051Z,974.90
2019-01-28T05:19:42.959Z,974.85
2019-01-28T05:20:42.890Z,974.86
2019-01-28T05:21:42.831Z,974.88
2019-01-28T05:22:42.794Z,974.89
2019-01-28T05:23:42.744Z,974.83
2019-01-28T05:24:42.670Z,974.87
2019-01-28T05:25:42.633Z,974.85
2019-01-28T05:26:42.554Z,974.86
2019-01-28T05:27:42.503Z,974.90
2019-01-28T05:28:42.467Z,974.88
2019-01-28T05:29:42.371Z,974.85
2019-01-28T05:30:42.329Z,974.85
2019-01-28T05:31:42.265Z,974.89
2019-01-28T05:32:42.213Z,974.81
2019-01-28T05:33:42.198Z,974.86
2019-01-28T05:34:42.090Z,974.87
2019-01-28T05:35:42.031Z,974.88
2019-01-28T05:36:41.972Z,974.81
2019-01-28T05:37:41.919Z,974.81
2019-01-28T05:38:41.887Z,974.82
2019-01-28T05:39:41.803Z,974.82
2019-01-28T05:40:41.748Z,974.83
2019-01-28T05:41:41.691Z,974.86
2019-01-28T05:42:41.640Z,974.81
2019-01-28T05:43:41.602Z,974.80
2019-01-28T05:44:41.526Z,974.82
2019-01-28T05:45:41.459Z,974.80
2019-01-28T05:46:41.401Z,974.78
2019-01-28T05:47:41.342Z,974.81
2019-01-28T05:48:41.316Z,974.77
2019-01-28T05:49:41.230Z,974.79
2019-01-28T05:50:41.180Z,974.80
2019-01-28T05:51:41.116Z,974.80
2019-01-28T05:52:41.057Z,974.80
2019-01-28T05:53:41.036Z,974.76
2019-01-28T05:54:40.941Z,974.83
2019-01-28T05:55:40.890Z,974.84
2019-01-28T05:56:40.846Z,974.77
2019-01-28T05:57:40.769Z,974.78
2019-01-28T05:58:40.740Z,974.84
2019-01-28T05:59:40.660Z,974.85
2019-01-28T06:00:40.597Z,974.80
2019-01-28T06:01:40.551Z,974.76
2019-01-28T06:02:40.483Z,974.87
2019-01-28T06:03:40.451Z,974.80
2019-01-28T06:04:40.368Z,974.84
2019-01-28T06:05:40.313Z,974.85
2019-01-28T06:06:40.254Z,974.80
2019-01-28T06:07:40.196Z,974.79
2019-01-28T06:08:40.172Z,974.77
2019-01-28T06:09:40.083Z,974.81
2019-01-28T06:10:40.025Z,974.81
2019-01-28T06:11:39.977Z,974.81
2019-01-28T06:12:39.913Z,974.83
2019-01-28T06:13:39.902Z,974.82
2019-01-28T06:14:39.825Z,974.83
2019-01-28T06:15:39.735Z,974.83
2019-01-28T06:16:39.679Z,974.85
2019-01-28T06:17:39.625Z,974.84
2019-01-28T06:18:39.567Z,974.84
2019-01-28T06:19:39.532Z,974.86
2019-01-28T06:20:39.456Z,974.90
2019-01-28T06:21:39.400Z,974.92
2019-01-28T06:22:39.342Z,974.93
2019-01-28T06:23:39.289Z,974.91
2019-01-28T06:24:39.245Z,974.86
2019-01-28T06:25:39.170Z,974.89
2019-01-28T06:26:39.114Z,974.90
2019-01-28T06:27:39.052Z,974.91
2019-01-28T06:28:38.990Z,974.95
2019-01-28T06:29:38.963Z,974.90
2019-01-28T06:30:38.888Z,974.89
2019-01-28T06:31:38.820Z,974.92
2019-01-28T06:32:40.727Z,974.88
2019-01-28T06:33:40.621Z,974.94
2019-01-28T06:34:38.677Z,974.89
2019-01-28T06:35:38.590Z,974.87
2019-01-28T06:36:38.537Z,974.90
2019-01-28T06:37:38.479Z,974.90
2019-01-28T06:38:38.425Z,974.92
2019-01-28T06:39:38.386Z,974.88
2019-01-28T06:40:38.311Z,974.90
2019-01-28T06:41:38.252Z,974.89
2019-01-28T06:42:38.192Z,974.90
2019-01-28T06:43:38.131Z,974.89
2019-01-28T06:44:38.101Z,974.92
2019-01-28T06:45:38.017Z,974.93
2019-01-28T06:46:37.962Z,974.92
2019-01-28T06:47:37.903Z,974.96
2019-01-28T06:48:37.847Z,974.95
2019-01-28T06:49:37.820Z,974.94
2019-01-28T06:50:37.735Z,974.97
2019-01-28T06:51:37.697Z,974.97
2019-01-28T06:52:37.616Z,974.97
2019-01-28T06:53:37.561Z,974.99
2019-01-28T06:54:37.507Z,975.01
2019-01-28T06:55:37.474Z,975.03
2019-01-28T06:56:38.536Z,975.05
2019-01-28T06:57:37.332Z,975.03
2019-01-28T06:58:37.276Z,975.00
2019-01-28T06:59:37.218Z,975.03
2019-01-28T07:00:37.187Z,975.01
2019-01-28T07:01:37.106Z,975.03
2019-01-28T07:02:37.047Z,975.05
2019-01-28T07:03:36.988Z,975.04
2019-01-28T07:04:36.931Z,974.99
2019-01-28T07:05:36.896Z,975.00
2019-01-28T07:06:36.814Z,975.00
2019-01-28T07:07:36.759Z,975.03
2019-01-28T07:08:36.708Z,975.01
2019-01-28T07:09:36.643Z,975.06
2019-01-28T07:10:36.625Z,975.03
2019-01-28T07:11:36.532Z,975.05
2019-01-28T07:12:36.473Z,975.05
2019-01-28T07:13:36.419Z,975.04
2019-01-28T07:14:36.358Z,975.09
2019-01-28T07:15:36.330Z,975.06
2019-01-28T07:16:36.239Z,975.07
2019-01-28T07:17:36.184Z,975.11
2019-01-28T07:18:36.128Z,975.10
2019-01-28T07:19:36.069Z,975.12
2019-01-28T07:20:36.045Z,975.11
2019-01-28T07:21:35.950Z,975.11
2019-01-28T07:22:35.899Z,975.10
2019-01-28T07:23:35.841Z,975.17
2019-01-28T07:24:35.791Z,975.15
2019-01-28T07:25:35.768Z,975.11
2019-01-28T07:26:35.671Z,975.15
2019-01-28T07:27:35.628Z,975.18
2019-01-28T07:28:35.556Z,975.17
2019-01-28T07:29:35.515Z,975.22
2019-01-28T07:30:35.467Z,975.22
2019-01-28T07:31:35.384Z,975.22
2019-01-28T07:32:35.342Z,975.23
2019-01-28T07:33:35.278Z,975.22
2019-01-28T07:34:35.212Z,975.24
2019-01-28T07:35:35.175Z,975.24
2019-01-28T07:36:35.097Z,975.23
2019-01-28T07:37:35.041Z,975.27
2019-01-28T07:38:34.981Z,975.27
2019-01-28T07:39:34.926Z,975.29
2019-01-28T07:40:34.893Z,975.26
2019-01-28T07:41:34.810Z,975.29
2019-01-28T07:42:34.755Z,975.27
2019-01-28T07:43:34.694Z,975.28
2019-01-28T07:44:34.646Z,975.29
2019-01-28T07:45:34.604Z,975.29
2019-01-28T07:46:34.549Z,975.30
2019-01-28T07:47:34.466Z,975.32
2019-01-28T07:48:34.411Z,975.35
2019-01-28T07:49:34.352Z,975.36
2019-01-28T07:50:34.349Z,975.31
2019-01-28T07:51:34.236Z,975.32
2019-01-28T07:52:34.182Z,975.35
2019-01-28T07:53:34.125Z,975.35
2019-01-28T07:54:34.064Z,975.35
2019-01-28T07:55:34.006Z,975.41
2019-01-28T07:56:33.975Z,975.40
2019-01-28T07:57:33.893Z,975.39
2019-01-28T07:58:33.838Z,975.38
2019-01-28T07:59:33.778Z,975.38
2019-01-28T08:00:33.721Z,975.37
2019-01-28T08:01:33.694Z,975.40
2019-01-28T08:02:33.606Z,975.43
2019-01-28T08:03:33.552Z,975.44
2019-01-28T08:04:33.502Z,975.41
2019-01-28T08:05:33.541Z,975.42
2019-01-28T08:06:33.404Z,975.44
2019-01-28T08:07:33.326Z,975.45
2019-01-28T08:08:33.263Z,975.45
2019-01-28T08:09:33.207Z,975.47
2019-01-28T08:10:33.157Z,975.49
2019-01-28T08:11:33.116Z,975.50
2019-01-28T08:12:33.042Z,975.53
2019-01-28T08:13:32.982Z,975.50
2019-01-28T08:14:32.922Z,975.52
2019-01-28T08:15:32.867Z,975.49
2019-01-28T08:16:32.833Z,975.54
2019-01-28T08:17:32.746Z,975.56
2019-01-28T08:18:32.693Z,975.55
2019-01-28T08:19:32.641Z,975.54
2019-01-28T08:20:32.579Z,975.55
2019-01-28T08:21:32.553Z,975.61
2019-01-28T08:22:32.468Z,975.58
2019-01-28T08:23:32.420Z,975.64
2019-01-28T08:24:32.349Z,975.61
2019-01-28T08:25:32.295Z,975.64
2019-01-28T08:26:32.258Z,975.63
2019-01-28T08:27:32.178Z,975.66
2019-01-28T08:28:36.802Z,975.68
2019-01-28T08:29:32.062Z,975.61
2019-01-28T08:30:32.024Z,975.63
2019-01-28T08:31:31.980Z,975.61
2019-01-28T08:32:31.889Z,975.61
2019-01-28T08:33:31.836Z,975.63
2019-01-28T08:34:31.785Z,975.64
2019-01-28T08:35:31.740Z,975.59
2019-01-28T08:36:31.726Z,975.65
2019-01-28T08:37:31.642Z,975.65
2019-01-28T08:38:31.552Z,975.63
2019-01-28T08:39:31.505Z,975.66
2019-01-28T08:40:31.441Z,975.67
2019-01-28T08:41:31.407Z,975.64
2019-01-28T08:42:31.339Z,975.66
2019-01-28T08:43:31.285Z,975.60
2019-01-28T08:44:31.208Z,975.67
2019-01-28T08:45:31.149Z,975.66
2019-01-28T08:46:31.151Z,975.71
2019-01-28T08:47:31.054Z,975.69
2019-01-28T08:48:31.012Z,975.69
2019-01-28T08:49:30.927Z,975.69
2019-01-28T08:50:30.881Z,975.71
2019-01-28T08:51:30.865Z,975.75
2019-01-28T08:52:30.770Z,975.75
2019-01-28T08:53:30.700Z,975.75
2019-01-28T08:54:30.648Z,975.74
2019-01-28T08:55:30.586Z,975.80
2019-01-28T08:56:30.530Z,975.83
2019-01-28T08:57:30.517Z,975.79
2019-01-28T08:58:30.408Z,975.76
2019-01-28T08:59:30.364Z,975.82
2019-01-28T09:00:30.339Z,975.80
2019-01-28T09:01:30.252Z,975.82
2019-01-28T09:02:30.217Z,975.79
2019-01-28T09:03:30.124Z,975.79
2019-01-28T09:04:30.077Z,975.77
2019-01-28T09:05:30.020Z,975.73
2019-01-28T09:06:29.963Z,975.79
2019-01-28T09:07:29.940Z,975.80
2019-01-28T09:08:29.840Z,975.79
2019-01-28T09:09:29.802Z,975.80
2019-01-28T09:10:29.752Z,975.78
2019-01-28T09:11:29.668Z,975.78
2019-01-28T09:12:29.640Z,975.80
2019-01-28T09:13:29.570Z,975.83
2019-01-28T09:14:29.509Z,975.85
2019-01-28T09:15:29.459Z,975.91
2019-01-28T09:16:29.395Z,975.89
2019-01-28T09:17:29.392Z,975.88
2019-01-28T09:18:29.278Z,975.90
2019-01-28T09:19:29.219Z,975.91
2019-01-28T09:20:29.163Z,975.92
2019-01-28T09:21:29.098Z,975.95
2019-01-28T09:22:29.079Z,975.99
2019-01-28T09:23:28.989Z,975.99
2019-01-28T09:24:28.929Z,976.00
2019-01-28T09:25:28.889Z,976.02
2019-01-28T09:26:28.819Z,976.03
2019-01-28T09:27:28.787Z,976.03
2019-01-28T09:28:28.725Z,976.02
2019-01-28T09:29:28.640Z,976.05
2019-01-28T09:30:28.587Z,976.07
2019-01-28T09:31:28.528Z,976.06
2019-01-28T09:32:28.502Z,976.09
2019-01-28T09:33:28.435Z,976.10
2019-01-28T09:34:28.426Z,976.11
2019-01-28T09:35:28.304Z,976.11
2019-01-28T09:36:28.252Z,976.12
2019-01-28T09:37:28.209Z,976.14
2019-01-28T09:38:28.134Z,976.14
2019-01-28T09:39:28.082Z,976.15
2019-01-28T09:40:28.018Z,976.18
2019-01-28T09:41:27.970Z,976.14
2019-01-28T09:42:27.930Z,976.18
2019-01-28T09:43:27.854Z,976.18
2019-01-28T09:44:27.799Z,976.21
2019-01-28T09:45:27.741Z,976.15
2019-01-28T09:46:27.678Z,976.19
2019-01-28T09:47:27.651Z,976.20
2019-01-28T09:48:34.134Z,976.20
2019-01-28T09:49:27.511Z,976.25
2019-01-28T09:50:27.451Z,976.21
2019-01-28T09:51:27.396Z,976.22
2019-01-28T09:52:27.379Z,976.23
2019-01-28T09:53:29.320Z,976.22
2019-01-28T09:54:27.225Z,976.24
2019-01-28T09:55:27.180Z,976.26
2019-01-28T09:56:27.117Z,976.25
2019-01-28T09:57:27.065Z,976.30
2019-01-28T09:58:27.031Z,976.35
2019-01-28T09:59:26.942Z,976.34
2019-01-28T10:00:26.882Z,976.36
2019-01-28T10:01:26.827Z,976.34
2019-01-28T10:02:26.771Z,976.41
2019-01-28T10:03:26.738Z,976.40
2019-01-28T10:04:26.660Z,976.42
2019-01-28T10:05:26.603Z,976.45
2019-01-28T10:06:26.543Z,976.44
2019-01-28T10:07:26.488Z,976.42
2019-01-28T10:08:26.450Z,976.44
2019-01-28T10:09:26.379Z,976.46
2019-01-28T10:10:26.312Z,976.48
2019-01-28T10:11:26.275Z,976.48
2019-01-28T10:12:26.205Z,976.49
2019-01-28T10:13:26.205Z,976.55
2019-01-28T10:14:26.087Z,976.56
2019-01-28T10:15:28.696Z,976.61
2019-01-28T10:16:25.976Z,976.64
2019-01-28T10:17:25.921Z,976.66
2019-01-28T10:18:25.903Z,976.70
2019-01-28T10:19:25.807Z,976.69
2019-01-28T10:20:25.749Z,976.73
2019-01-28T10:21:25.693Z,976.74
2019-01-28T10:22:25.635Z,976.73
2019-01-28T10:23:26.186Z,976.72
2019-01-28T10:24:25.553Z,976.72
2019-01-28T10:25:25.499Z,976.80
2019-01-28T10:26:25.421Z,976.78
2019-01-28T10:27:25.353Z,976.78
2019-01-28T10:28:25.323Z,976.82
2019-01-28T10:29:25.232Z,976.83
2019-01-28T10:30:25.186Z,976.86
2019-01-28T10:31:25.136Z,976.87
2019-01-28T10:32:25.071Z,976.90
2019-01-28T10:33:25.038Z,976.92
2019-01-28T10:34:24.958Z,976.91
2019-01-28T10:35:24.908Z,976.98
2019-01-28T10:36:24.836Z,976.99
2019-01-28T10:37:24.789Z,977.03
2019-01-28T10:38:24.761Z,977.07
2019-01-28T10:39:24.663Z,977.04
2019-01-28T10:40:24.623Z,977.05
2019-01-28T10:41:24.562Z,977.03
2019-01-28T10:42:24.684Z,976.95
2019-01-28T10:43:24.472Z,976.96
2019-01-28T10:44:24.402Z,976.87
2019-01-28T10:45:24.338Z,977.03
2019-01-28T10:46:24.279Z,977.05
2019-01-28T10:47:24.229Z,976.96
2019-01-28T10:48:24.190Z,976.92
2019-01-28T10:49:24.111Z,976.88
2019-01-28T10:50:24.053Z,976.79
2019-01-28T10:51:24.000Z,976.75
2019-01-28T10:52:23.985Z,976.92
2019-01-28T10:53:23.929Z,976.98
2019-01-28T10:54:23.826Z,977.04
2019-01-28T10:55:23.775Z,977.13
2019-01-28T10:56:23.715Z,977.16
2019-01-28T10:57:23.652Z,977.10
2019-01-28T10:58:23.600Z,977.12
2019-01-28T10:59:23.585Z,977.19
2019-01-28T11:00:23.491Z,977.21
2019-01-28T11:01:23.443Z,977.21
2019-01-28T11:02:23.371Z,977.24
2019-01-28T11:03:23.327Z,977.23
2019-01-28T11:04:23.290Z,977.26
2019-01-28T11:05:23.210Z,977.24
2019-01-28T11:06:23.155Z,977.26
2019-01-28T11:07:23.082Z,977.29
2019-01-28T11:08:23.036Z,977.37
2019-01-28T11:09:23.145Z,977.37
2019-01-28T11:10:22.983Z,977.42
2019-01-28T11:11:22.858Z,977.40
2019-01-28T11:12:22.804Z,977.41
2019-01-28T11:13:22.850Z,977.41
2019-01-28T11:14:22.792Z,977.48
2019-01-28T11:15:22.657Z,977.48
2019-01-28T11:16:22.642Z,977.46
2019-01-28T11:17:22.550Z,977.48
2019-01-28T11:18:22.498Z,977.48
2019-01-28T11:19:22.534Z,977.58
2019-01-28T11:20:22.360Z,977.53
2019-01-28T11:21:22.376Z,977.56
2019-01-28T11:22:22.285Z,977.60
2019-01-28T11:23:22.314Z,977.55
2019-01-28T11:24:22.167Z,977.51
2019-01-28T11:25:22.091Z,977.45
2019-01-28T11:26:22.133Z,977.50
2019-01-28T11:27:22.071Z,977.58
2019-01-28T11:28:22.099Z,977.62
2019-01-28T11:29:21.965Z,977.62
2019-01-28T11:30:21.916Z,977.63
2019-01-28T11:31:21.717Z,977.60
2019-01-28T11:32:21.808Z,977.62
2019-01-28T11:33:21.609Z,977.69
2019-01-28T11:34:21.649Z,977.75
2019-01-28T11:35:21.569Z,977.73
2019-01-28T11:36:21.476Z,977.75
2019-01-28T11:37:21.400Z,977.76
2019-01-28T11:38:21.383Z,977.77
2019-01-28T11:39:21.290Z,977.83
2019-01-28T11:40:21.390Z,977.79
2019-01-28T11:41:21.205Z,977.84
2019-01-28T11:42:21.090Z,977.86
2019-01-28T11:43:21.070Z,977.98
2019-01-28T11:44:21.123Z,977.98
2019-01-28T11:45:20.987Z,977.98
2019-01-28T11:46:20.861Z,977.95
2019-01-28T11:47:20.894Z,977.95
2019-01-28T11:48:20.813Z,978.04
2019-01-28T11:49:20.861Z,978.06
2019-01-28T11:50:20.699Z,978.09
2019-01-28T11:51:20.594Z,978.11
2019-01-28T11:52:20.528Z,978.12
2019-01-28T11:53:20.472Z,978.09
2019-01-28T11:54:20.418Z,978.12
2019-01-28T11:55:20.386Z,978.23
2019-01-28T11:56:20.299Z,978.22
2019-01-28T11:57:20.236Z,978.15
2019-01-28T11:58:20.189Z,978.15
2019-01-28T11:59:20.125Z,978.20
2019-01-28T12:00:20.095Z,978.29
2019-01-28T12:01:20.014Z,978.27
2019-01-28T12:02:19.958Z,978.23
2019-01-28T12:03:19.901Z,978.21
2019-01-28T12:04:19.847Z,978.33
2019-01-28T12:05:19.817Z,978.35
2019-01-28T12:06:19.741Z,978.37
2019-01-28T12:07:19.664Z,978.36
2019-01-28T12:08:19.619Z,978.44
2019-01-28T12:09:19.560Z,978.49
2019-01-28T12:10:19.519Z,978.49
2019-01-28T12:11:19.434Z,978.45
2019-01-28T12:12:19.383Z,978.53
2019-01-28T12:13:19.323Z,978.56
2019-01-28T12:14:19.274Z,978.56
2019-01-28T12:15:19.239Z,978.54
2019-01-28T12:16:19.167Z,978.61
2019-01-28T12:17:19.096Z,978.67
2019-01-28T12:18:19.047Z,978.71
2019-01-28T12:19:18.994Z,978.68
2019-01-28T12:20:18.958Z,978.68
2019-01-28T12:21:18.868Z,978.72
2019-01-28T12:22:18.806Z,978.75
2019-01-28T12:23:18.761Z,978.81
2019-01-28T12:24:18.854Z,978.80
2019-01-28T12:25:18.664Z,978.84
2019-01-28T12:26:18.588Z,978.87
2019-01-28T12:27:18.544Z,978.89